Time;durP1;ratioP1;P1;durP2;ratioP2;P2;SDS_P1;SDS_P2;PMS_P1;PMS_P2;Temp;Humidity;BMP_temperature;BMP_pressure;BME280_temperature;BME280_humidity;BME280_pressure;Samples;Min_cycle;Max_cycle;Signal;HPM_P1;HPM_P2
2020/12/20 00:01:38;;;;;;;1.42;1.33;;;17.70;59.20;;;;;;5043672;28;20207;-61
2020/12/20 00:04:04;;;;;;;1.83;1.73;;;17.70;59.20;;;;;;5043466;28;20174;-61
2020/12/20 00:06:36;;;;;;;1.83;1.60;;;17.70;59.20;;;;;;5043678;28;20315;-61
2020/12/20 00:09:08;;;;;;;1.70;1.60;;;17.60;59.20;;;;;;5043740;28;20393;-62
2020/12/20 00:11:38;;;;;;;1.75;1.65;;;17.60;59.20;;;;;;5043804;28;20207;-60
2020/12/20 00:14:26;;;;;;;1.67;1.40;;;17.60;59.20;;;;;;5025974;28;20186;-62
2020/12/20 00:16:49;;;;;;;1.88;1.77;;;17.60;59.80;;;;;;5043506;28;20177;-62
2020/12/20 00:19:14;;;;;;;1.60;1.50;;;17.60;59.20;;;;;;5043529;28;20171;-62
2020/12/20 00:21:40;;;;;;;2.05;1.52;;;17.60;59.80;;;;;;5043708;28;20289;-61
2020/12/20 00:24:08;;;;;;;1.35;1.23;;;17.60;59.20;;;;;;5043483;28;20187;-61
2020/12/20 00:26:34;;;;;;;1.40;1.30;;;17.50;59.20;;;;;;5043418;28;20637;-62
2020/12/20 00:28:59;;;;;;;1.63;1.52;;;17.60;59.20;;;;;;5043643;28;20206;-61
2020/12/20 00:31:25;;;;;;;1.58;1.48;;;17.60;59.20;;;;;;5043603;28;20625;-60
2020/12/20 00:33:51;;;;;;;1.55;1.45;;;17.50;59.20;;;;;;5043708;28;20201;-61
2020/12/20 00:36:16;;;;;;;1.83;1.30;;;17.60;59.20;;;;;;5043554;28;20183;-61
2020/12/20 00:38:42;;;;;;;1.55;1.45;;;17.50;59.10;;;;;;5043650;28;20179;-61
2020/12/20 00:41:10;;;;;;;1.55;1.45;;;17.60;59.20;;;;;;5043391;28;20179;-61
2020/12/20 00:43:36;;;;;;;2.28;1.70;;;17.50;59.70;;;;;;5043309;28;20207;-62
2020/12/20 00:46:01;;;;;;;1.92;1.50;;;17.50;59.10;;;;;;5025670;28;20178;-61
2020/12/20 00:48:27;;;;;;;1.65;1.50;;;17.50;59.20;;;;;;5043640;28;20177;-61
2020/12/20 00:50:52;;;;;;;2.00;1.52;;;17.50;59.20;;;;;;5043543;28;20218;-61
2020/12/20 00:53:18;;;;;;;2.03;1.90;;;17.50;59.10;;;;;;5044400;28;20229;-61
2020/12/20 00:55:43;;;;;;;1.60;1.50;;;17.50;59.10;;;;;;5047153;28;20175;-61
2020/12/20 00:58:09;;;;;;;1.67;1.58;;;17.50;59.10;;;;;;5046972;28;20284;-59
2020/12/20 01:00:34;;;;;;;2.60;1.73;;;17.50;59.10;;;;;;5047222;28;20207;-61
2020/12/20 01:03:00;;;;;;;1.55;1.45;;;17.50;59.10;;;;;;5047050;28;20207;-60
2020/12/20 01:05:26;;;;;;;2.17;1.50;;;17.40;59.10;;;;;;5047383;28;20172;-60
2020/12/20 01:07:51;;;;;;;1.90;1.42;;;17.50;59.20;;;;;;5046932;28;20232;-60
2020/12/20 01:10:17;;;;;;;1.60;1.50;;;17.40;59.10;;;;;;5046554;28;20261;-60
2020/12/20 01:12:42;;;;;;;1.42;1.33;;;17.50;59.20;;;;;;5047138;28;20210;-61
2020/12/20 01:15:08;;;;;;;2.15;1.50;;;17.40;59.10;;;;;;5029079;28;20183;-61
2020/12/20 01:17:36;;;;;;;1.60;1.50;;;17.40;59.10;;;;;;5046824;28;20175;-61
2020/12/20 01:20:01;;;;;;;1.48;1.38;;;17.50;59.20;;;;;;5046713;28;20580;-60
2020/12/20 01:22:27;;;;;;;1.60;1.50;;;17.40;59.10;;;;;;5046551;28;20206;-61
2020/12/20 01:24:52;;;;;;;1.65;1.40;;;17.40;59.10;;;;;;5046594;28;21030;-60
2020/12/20 01:27:18;;;;;;;1.35;1.25;;;17.40;59.10;;;;;;5046348;28;20934;-61
2020/12/20 01:29:43;;;;;;;1.73;1.63;;;17.40;59.10;;;;;;5046443;28;20596;-60
2020/12/20 01:32:09;;;;;;;1.77;1.40;;;17.40;59.70;;;;;;5046179;28;20207;-60
2020/12/20 01:34:34;;;;;;;1.65;1.40;;;17.40;59.10;;;;;;5046296;28;20195;-61
2020/12/20 01:37:00;;;;;;;1.30;1.20;;;17.40;59.10;;;;;;5046335;28;20175;-60
2020/12/20 01:39:25;;;;;;;1.88;1.77;;;17.30;59.10;;;;;;5046245;28;20174;-60
2020/12/20 01:41:52;;;;;;;2.05;1.42;;;17.40;59.10;;;;;;5045935;28;20215;-61
2020/12/20 01:44:17;;;;;;;1.35;1.25;;;17.30;59.00;;;;;;5046097;28;20175;-60
2020/12/20 01:46:43;;;;;;;1.40;1.30;;;17.30;59.00;;;;;;5046151;28;20972;-60
2020/12/20 01:49:10;;;;;;;3.28;1.60;;;17.30;59.10;;;;;;5045963;28;20513;-61
2020/12/20 01:51:35;;;;;;;1.40;1.30;;;17.40;59.10;;;;;;5011640;28;20179;-60
2020/12/20 01:54:01;;;;;;;1.52;1.42;;;17.30;59.00;;;;;;5045992;28;20949;-61
2020/12/20 01:56:26;;;;;;;1.63;1.52;;;17.30;59.00;;;;;;5028038;28;20980;-60
2020/12/20 01:58:52;;;;;;;1.40;1.30;;;17.40;59.00;;;;;;5045818;28;20509;-60
2020/12/20 02:01:17;;;;;;;1.52;1.42;;;17.30;59.00;;;;;;5011532;28;20233;-60
2020/12/20 02:03:43;;;;;;;1.55;1.45;;;17.30;59.00;;;;;;5045729;28;20240;-60
2020/12/20 02:06:12;;;;;;;1.15;1.10;;;17.30;59.00;;;;;;5044991;28;20179;-60
2020/12/20 02:08:38;;;;;;;1.42;1.33;;;17.30;59.00;;;;;;5045463;28;20257;-61
2020/12/20 02:11:11;;;;;;;1.50;1.40;;;17.30;59.00;;;;;;5045343;28;20309;-60
2020/12/20 02:13:48;;;;;;;1.40;1.30;;;17.30;59.30;;;;;;5045139;28;20267;-61
2020/12/20 02:16:15;;;;;;;1.30;1.20;;;17.30;59.00;;;;;;5045139;28;20538;-60
2020/12/20 02:18:40;;;;;;;2.15;1.45;;;17.30;59.00;;;;;;5045404;28;20171;-61
2020/12/20 02:21:19;;;;;;;1.45;1.27;;;17.30;59.00;;;;;;5045567;28;20183;-61
2020/12/20 02:23:48;;;;;;;1.70;1.58;;;17.30;59.00;;;;;;5045105;28;20210;-61
2020/12/20 02:26:17;;;;;;;1.77;1.30;;;17.30;58.90;;;;;;5045125;28;20210;-58
2020/12/20 02:28:43;;;;;;;1.50;1.40;;;17.30;59.00;;;;;;5045144;28;20179;-61
2020/12/20 02:31:08;;;;;;;1.45;1.35;;;17.20;58.90;;;;;;5045106;28;20184;-59
2020/12/20 02:33:34;;;;;;;1.50;1.40;;;17.20;58.90;;;;;;5045331;28;20947;-57
2020/12/20 02:36:00;;;;;;;1.40;1.27;;;17.20;58.90;;;;;;5045067;28;20175;-60
2020/12/20 02:38:26;;;;;;;1.77;1.50;;;17.20;58.90;;;;;;5045169;28;20175;-60
2020/12/20 02:40:52;;;;;;;1.75;1.40;;;17.20;59.00;;;;;;5045151;28;20260;-61
2020/12/20 02:43:17;;;;;;;1.38;1.27;;;17.20;58.90;;;;;;5044883;28;20601;-61
2020/12/20 02:45:43;;;;;;;1.40;1.30;;;17.20;59.00;;;;;;5045034;28;20221;-60
2020/12/20 02:48:09;;;;;;;1.65;1.55;;;17.20;58.90;;;;;;5027125;28;20213;-61
2020/12/20 02:50:35;;;;;;;1.33;1.23;;;17.20;58.90;;;;;;5044914;28;20186;-60
2020/12/20 02:53:00;;;;;;;1.90;1.30;;;17.20;58.90;;;;;;5044730;28;20183;-61
2020/12/20 02:55:26;;;;;;;1.40;1.30;;;17.10;58.90;;;;;;5026627;28;20183;-60
2020/12/20 02:57:52;;;;;;;2.03;1.45;;;17.20;58.90;;;;;;5027107;28;20254;-61
2020/12/20 03:00:18;;;;;;;1.30;1.20;;;17.20;58.90;;;;;;5044684;28;20172;-60
2020/12/20 03:02:44;;;;;;;1.60;1.50;;;17.20;58.90;;;;;;5044496;28;20221;-60
2020/12/20 03:05:09;;;;;;;1.50;1.40;;;17.20;58.90;;;;;;5044027;28;20183;-60
2020/12/20 03:07:35;;;;;;;2.17;1.40;;;17.10;58.80;;;;;;5044470;28;20632;-60
2020/12/20 03:10:01;;;;;;;1.33;1.23;;;17.10;58.90;;;;;;5044137;28;20175;-60
2020/12/20 03:12:26;;;;;;;1.48;1.38;;;17.10;58.90;;;;;;5044274;28;20648;-61
2020/12/20 03:14:52;;;;;;;1.63;1.52;;;17.10;58.80;;;;;;5044445;28;20262;-61
2020/12/20 03:17:17;;;;;;;1.50;1.40;;;17.20;58.90;;;;;;5044347;28;20648;-61
2020/12/20 03:19:43;;;;;;;1.75;1.65;;;17.10;58.80;;;;;;5044849;28;20639;-61
2020/12/20 03:22:08;;;;;;;1.38;1.27;;;17.10;58.80;;;;;;5044609;28;20570;-61
2020/12/20 03:24:34;;;;;;;1.33;1.23;;;17.10;58.80;;;;;;5044506;28;20175;-61
2020/12/20 03:26:59;;;;;;;1.50;1.35;;;17.10;58.90;;;;;;5044382;28;20321;-61
2020/12/20 03:29:25;;;;;;;1.27;1.17;;;17.10;58.80;;;;;;5044252;28;20179;-60
2020/12/20 03:31:51;;;;;;;1.48;1.38;;;17.10;58.90;;;;;;5044286;28;20179;-60
2020/12/20 03:34:16;;;;;;;1.95;1.55;;;17.10;58.80;;;;;;5044546;28;20646;-61
2020/12/20 03:36:42;;;;;;;1.45;1.35;;;17.10;58.90;;;;;;5044134;28;20183;-60
2020/12/20 03:39:07;;;;;;;1.77;1.52;;;17.10;58.90;;;;;;5026033;28;20191;-61
2020/12/20 03:41:33;;;;;;;1.45;1.35;;;17.10;58.90;;;;;;5044204;28;20271;-61
2020/12/20 03:43:58;;;;;;;1.90;1.60;;;17.10;58.90;;;;;;5044401;28;20687;-61
2020/12/20 03:46:24;;;;;;;1.40;1.30;;;17.10;58.80;;;;;;5044084;28;20225;-61
2020/12/20 03:48:49;;;;;;;1.40;1.30;;;17.00;58.80;;;;;;5043978;28;20183;-62
2020/12/20 03:51:15;;;;;;;1.42;1.33;;;17.10;58.80;;;;;;5043892;28;20240;-60
2020/12/20 03:53:40;;;;;;;1.40;1.30;;;17.00;58.80;;;;;;5025846;28;20211;-61
2020/12/20 03:56:09;;;;;;;1.52;1.42;;;17.00;58.80;;;;;;5043799;28;20922;-60
2020/12/20 03:58:35;;;;;;;1.58;1.27;;;17.00;58.80;;;;;;5043773;28;20171;-60
2020/12/20 04:01:00;;;;;;;1.40;1.30;;;17.00;58.80;;;;;;5043649;28;20171;-59
2020/12/20 04:03:26;;;;;;;1.80;1.70;;;17.00;58.80;;;;;;5043642;28;20272;-60
2020/12/20 04:05:51;;;;;;;1.20;1.10;;;17.00;58.80;;;;;;5043853;28;20210;-59
2020/12/20 04:08:17;;;;;;;1.40;1.30;;;17.00;58.80;;;;;;5043841;28;20183;-61
2020/12/20 04:10:42;;;;;;;1.40;1.30;;;17.00;58.80;;;;;;5043828;28;20191;-60
2020/12/20 04:13:08;;;;;;;1.65;1.48;;;17.00;58.80;;;;;;5043964;28;20183;-61
2020/12/20 04:15:34;;;;;;;1.17;1.10;;;16.90;58.80;;;;;;5043575;28;20175;-60
2020/12/20 04:18:00;;;;;;;1.05;1.05;;;17.00;58.80;;;;;;5043700;28;20913;-60
2020/12/20 04:20:25;;;;;;;1.60;1.50;;;17.00;58.80;;;;;;5043574;28;20183;-61
2020/12/20 04:22:51;;;;;;;1.55;1.45;;;17.00;58.80;;;;;;5026121;28;20210;-61
2020/12/20 04:25:16;;;;;;;1.15;1.08;;;16.90;58.80;;;;;;5043847;28;20250;-61
2020/12/20 04:27:42;;;;;;;1.98;1.60;;;17.00;58.80;;;;;;5043451;28;20179;-60
2020/12/20 04:30:07;;;;;;;2.45;1.55;;;16.90;58.80;;;;;;5047235;28;20175;-57
2020/12/20 04:32:33;;;;;;;1.60;1.42;;;16.90;58.80;;;;;;5047327;28;20175;-60
2020/12/20 04:34:59;;;;;;;1.38;1.27;;;16.90;58.80;;;;;;5047325;28;20168;-60
2020/12/20 04:37:25;;;;;;;1.40;1.30;;;16.90;58.80;;;;;;5047639;28;20625;-61
2020/12/20 04:39:50;;;;;;;2.28;1.70;;;17.00;58.80;;;;;;5047302;28;20286;-60
2020/12/20 04:42:16;;;;;;;1.33;1.23;;;16.90;58.80;;;;;;5047199;28;20265;-61
2020/12/20 04:44:42;;;;;;;1.48;1.38;;;16.90;58.80;;;;;;5029525;28;20206;-61
2020/12/20 04:47:07;;;;;;;1.88;1.40;;;16.90;58.80;;;;;;5029525;28;20194;-61
2020/12/20 04:49:33;;;;;;;1.27;1.27;;;16.90;58.80;;;;;;5029376;28;20556;-60
2020/12/20 04:51:59;;;;;;;1.45;1.35;;;16.90;58.80;;;;;;5029464;28;20175;-61
2020/12/20 04:54:25;;;;;;;1.33;1.23;;;16.90;58.80;;;;;;5047141;28;20171;-61
2020/12/20 04:56:50;;;;;;;1.50;1.40;;;16.90;58.80;;;;;;5047219;28;20246;-61
2020/12/20 04:59:16;;;;;;;1.40;1.30;;;16.90;58.70;;;;;;5047274;28;20266;-59
2020/12/20 05:01:41;;;;;;;1.10;1.10;;;16.80;59.30;;;;;;5028925;28;20621;-60
2020/12/20 05:04:07;;;;;;;1.20;1.10;;;16.90;58.80;;;;;;5046958;28;20538;-60
2020/12/20 05:06:33;;;;;;;1.17;1.08;;;16.90;58.80;;;;;;5046875;28;20172;-61
2020/12/20 05:09:05;;;;;;;1.35;1.25;;;16.80;58.70;;;;;;5046927;28;20210;-61
2020/12/20 05:11:31;;;;;;;1.52;1.27;;;16.80;58.70;;;;;;5046546;28;20175;-61
2020/12/20 05:13:57;;;;;;;1.48;1.38;;;16.80;58.70;;;;;;5046819;28;20171;-61
2020/12/20 05:16:36;;;;;;;1.30;1.20;;;16.80;58.70;;;;;;5028788;28;20588;-61
2020/12/20 05:19:03;;;;;;;1.35;1.00;;;16.80;58.70;;;;;;5046738;28;20171;-62
2020/12/20 05:21:29;;;;;;;1.27;1.17;;;16.80;58.70;;;;;;5046536;28;20254;-61
2020/12/20 05:23:55;;;;;;;1.48;1.38;;;16.80;58.70;;;;;;5046553;28;20274;-61
2020/12/20 05:26:30;;;;;;;1.05;1.05;;;16.90;58.80;;;;;;5046537;28;20309;-58
2020/12/20 05:29:06;;;;;;;1.30;1.20;;;16.80;58.70;;;;;;5046270;28;20609;-61
2020/12/20 05:31:32;;;;;;;1.40;1.30;;;16.80;58.70;;;;;;5046193;28;20183;-59
2020/12/20 05:33:58;;;;;;;1.50;1.20;;;16.80;58.70;;;;;;5046702;28;20221;-60
2020/12/20 05:36:25;;;;;;;1.52;1.42;;;16.80;58.70;;;;;;5046042;28;20182;-60
2020/12/20 05:38:50;;;;;;;0.85;0.85;;;16.80;58.70;;;;;;5046082;28;20180;-61
2020/12/20 05:41:26;;;;;;;0.95;0.95;;;16.80;58.70;;;;;;5027137;28;20178;-61
2020/12/20 05:43:51;;;;;;;1.15;1.13;;;16.80;58.70;;;;;;5013116;28;20202;-61
2020/12/20 05:46:24;;;;;;;1.45;1.30;;;16.80;58.70;;;;;;5028370;28;20621;-60
2020/12/20 05:48:50;;;;;;;1.65;1.55;;;16.80;58.70;;;;;;5013101;28;20183;-61
2020/12/20 05:51:16;;;;;;;1.25;1.15;;;16.80;58.70;;;;;;5045824;28;20174;-60
2020/12/20 05:53:41;;;;;;;1.42;1.33;;;16.70;58.70;;;;;;5045969;28;20171;-60
2020/12/20 05:56:07;;;;;;;1.10;1.00;;;16.80;58.70;;;;;;5045867;28;20183;-61
2020/12/20 05:58:34;;;;;;;1.50;1.15;;;16.70;58.70;;;;;;5045855;28;20190;-60
2020/12/20 06:01:00;;;;;;;1.50;1.40;;;16.70;58.70;;;;;;5045797;28;20179;-60
2020/12/20 06:03:26;;;;;;;1.20;1.10;;;16.80;58.80;;;;;;5045514;28;20213;-60
2020/12/20 06:05:52;;;;;;;1.20;1.10;;;16.80;58.80;;;;;;5045527;28;20182;-59
2020/12/20 06:08:18;;;;;;;1.02;1.00;;;16.90;58.90;;;;;;5045568;28;20175;-61
2020/12/20 06:10:48;;;;;;;1.77;1.40;;;17.00;58.90;;;;;;5045701;28;20171;-60
2020/12/20 06:13:21;;;;;;;1.25;1.00;;;17.10;58.70;;;;;;5027771;28;20187;-61
2020/12/20 06:15:57;;;;;;;0.95;0.90;;;17.30;58.50;;;;;;5045843;28;20349;-61
2020/12/20 06:18:29;;;;;;;1.45;1.20;;;17.50;58.30;;;;;;5027974;28;20616;-60
2020/12/20 06:20:55;;;;;;;1.75;1.27;;;17.60;58.00;;;;;;5045033;28;20532;-60
2020/12/20 06:23:22;;;;;;;1.00;0.90;;;17.80;57.90;;;;;;5045270;28;20202;-61
2020/12/20 06:25:48;;;;;;;1.70;0.88;;;17.90;57.70;;;;;;5045579;28;20245;-60
2020/12/20 06:28:16;;;;;;;0.90;0.90;;;18.00;57.40;;;;;;5045368;28;20167;-57
2020/12/20 06:30:42;;;;;;;1.27;1.20;;;18.10;57.20;;;;;;5045242;28;20179;-60
2020/12/20 06:33:10;;;;;;;1.10;1.10;;;18.30;56.90;;;;;;5045208;28;20187;-61
2020/12/20 06:35:36;;;;;;;1.00;0.98;;;18.40;56.60;;;;;;5045261;28;20690;-60
2020/12/20 06:38:01;;;;;;;1.00;1.00;;;18.50;56.40;;;;;;5044887;28;20176;-60
2020/12/20 06:40:30;;;;;;;1.20;1.20;;;18.60;56.30;;;;;;5011000;28;20174;-61
2020/12/20 06:42:56;;;;;;;0.82;0.82;;;18.60;56.20;;;;;;5044966;28;20233;-61
2020/12/20 06:45:22;;;;;;;0.90;0.90;;;18.70;56.80;;;;;;5044772;28;20187;-61
2020/12/20 06:48:09;;;;;;;1.08;0.98;;;18.70;56.10;;;;;;5044949;28;20236;-62
2020/12/20 06:50:38;;;;;;;1.05;1.05;;;18.60;56.00;;;;;;5044921;28;20175;-61
2020/12/20 06:53:04;;;;;;;1.20;1.10;;;18.60;56.20;;;;;;5044672;28;20185;-61
2020/12/20 06:55:29;;;;;;;0.80;0.80;;;18.60;56.30;;;;;;5044865;28;20179;-60
2020/12/20 06:58:11;;;;;;;1.23;0.80;;;18.50;56.40;;;;;;5044416;28;20179;-61
2020/12/20 07:00:43;;;;;;;1.23;1.10;;;18.40;56.50;;;;;;5044830;28;20175;-60
2020/12/20 07:03:10;;;;;;;0.90;0.90;;;18.40;56.80;;;;;;5044564;28;20221;-60
2020/12/20 07:05:44;;;;;;;1.00;1.00;;;18.30;56.90;;;;;;5044870;28;20172;-60
2020/12/20 07:08:11;;;;;;;1.00;1.00;;;18.20;57.00;;;;;;5044698;28;20171;-60
2020/12/20 07:10:43;;;;;;;0.88;0.88;;;18.10;57.20;;;;;;5044400;28;20172;-60
2020/12/20 07:13:10;;;;;;;0.88;0.80;;;18.10;57.30;;;;;;5044130;28;20191;-60
2020/12/20 07:15:49;;;;;;;1.00;1.00;;;18.00;57.40;;;;;;5044160;28;20221;-60
2020/12/20 07:18:52;;;;;;;0.93;0.90;;;17.90;57.40;;;;;;5044387;28;20269;-61
2020/12/20 07:21:18;;;;;;;1.10;0.98;;;17.90;57.60;;;;;;5044388;28;20181;-61
2020/12/20 07:23:45;;;;;;;0.73;0.65;;;17.80;57.70;;;;;;5044544;28;20210;-61
2020/12/20 07:26:11;;;;;;;1.00;0.88;;;17.80;57.80;;;;;;5044424;28;20195;-60
2020/12/20 07:28:36;;;;;;;0.98;0.98;;;17.70;57.80;;;;;;5044327;28;20171;-60
2020/12/20 07:31:02;;;;;;;0.95;0.88;;;17.60;57.90;;;;;;5044580;28;20182;-59
2020/12/20 07:33:27;;;;;;;0.88;0.77;;;17.50;57.90;;;;;;5044164;28;20181;-60
2020/12/20 07:35:53;;;;;;;0.80;0.80;;;17.60;58.00;;;;;;5044172;28;20198;-59
2020/12/20 07:38:19;;;;;;;0.80;0.80;;;17.50;58.00;;;;;;5044962;28;20171;-61
2020/12/20 07:40:44;;;;;;;0.98;0.90;;;17.50;58.10;;;;;;5044542;28;20183;-61
2020/12/20 07:43:10;;;;;;;0.90;0.90;;;17.50;58.20;;;;;;5044060;28;20211;-61
2020/12/20 07:45:35;;;;;;;1.00;0.90;;;17.50;58.20;;;;;;5043936;28;20629;-61
2020/12/20 07:48:01;;;;;;;1.30;0.80;;;17.50;58.20;;;;;;5026745;28;20305;-61
2020/12/20 07:50:26;;;;;;;0.88;0.82;;;17.50;58.10;;;;;;5044243;28;20179;-61
2020/12/20 07:52:52;;;;;;;1.80;1.10;;;17.60;58.10;;;;;;5026353;28;20183;-61
2020/12/20 07:55:17;;;;;;;1.13;0.90;;;17.60;58.00;;;;;;5043811;28;20743;-61
2020/12/20 07:57:46;;;;;;;1.10;1.00;;;17.60;58.00;;;;;;5043793;28;20171;-60
2020/12/20 08:00:11;;;;;;;0.88;0.88;;;17.50;58.00;;;;;;5044108;28;20174;-60
2020/12/20 08:02:38;;;;;;;1.33;0.93;;;17.50;58.00;;;;;;5044028;28;20207;-61
2020/12/20 08:05:10;;;;;;;1.10;1.00;;;17.50;58.10;;;;;;5047472;28;20183;-61
2020/12/20 08:07:36;;;;;;;0.98;0.85;;;17.50;58.10;;;;;;5048386;28;20174;-61
2020/12/20 08:10:05;;;;;;;0.90;0.90;;;17.40;58.10;;;;;;5048058;28;20175;-61
2020/12/20 08:12:32;;;;;;;1.85;1.00;;;17.40;58.20;;;;;;5047919;28;20179;-61
2020/12/20 08:15:07;;;;;;;0.90;0.80;;;17.40;58.30;;;;;;5047838;28;20167;-61
2020/12/20 08:17:37;;;;;;;0.73;0.73;;;17.50;58.30;;;;;;5047713;28;20171;-61
2020/12/20 08:20:05;;;;;;;1.80;0.80;;;17.50;58.20;;;;;;5047722;28;20248;-61
2020/12/20 08:22:32;;;;;;;0.80;0.80;;;17.50;58.20;;;;;;5013453;28;20576;-61
2020/12/20 08:24:57;;;;;;;1.63;0.90;;;17.50;58.20;;;;;;5047370;28;20214;-61
2020/12/20 08:27:25;;;;;;;0.95;0.95;;;17.40;58.20;;;;;;5029684;28;20460;-60
2020/12/20 08:29:58;;;;;;;1.80;1.00;;;17.50;58.30;;;;;;5047485;28;20214;-57
2020/12/20 08:32:26;;;;;;;0.98;0.88;;;17.40;58.30;;;;;;5047532;28;20282;-60
2020/12/20 08:34:52;;;;;;;0.80;0.80;;;17.30;58.30;;;;;;5030171;28;20266;-61
2020/12/20 08:37:22;;;;;;;1.10;1.10;;;17.40;58.40;;;;;;5047768;28;21044;-64
2020/12/20 08:39:47;;;;;;;1.10;1.00;;;17.30;58.60;;;;;;5030064;28;20194;-64
2020/12/20 08:42:14;;;;;;;1.23;1.13;;;17.40;58.60;;;;;;5047125;28;20211;-63
2020/12/20 08:44:40;;;;;;;2.10;1.20;;;17.30;58.70;;;;;;5047123;28;20694;-65
2020/12/20 08:47:08;;;;;;;1.60;0.95;;;17.40;58.90;;;;;;5047226;28;20297;-66
2020/12/20 08:49:33;;;;;;;2.53;1.50;;;17.40;58.90;;;;;;5047362;28;20171;-64
2020/12/20 08:52:06;;;;;;;1.67;1.10;;;17.40;59.10;;;;;;5029679;28;20179;-63
2020/12/20 08:54:32;;;;;;;2.47;1.38;;;17.40;59.00;;;;;;5047336;28;20647;-62
2020/12/20 08:57:07;;;;;;;2.10;1.30;;;17.40;59.20;;;;;;5047016;28;20191;-63
2020/12/20 08:59:42;;;;;;;3.80;1.40;;;17.40;59.20;;;;;;5049379;28;20173;-63
2020/12/20 09:02:09;;;;;;;3.28;1.50;;;17.40;59.70;;;;;;5039146;28;20202;-63
2020/12/20 09:04:38;;;;;;;3.53;1.17;;;17.40;59.50;;;;;;5060644;28;20253;-62
2020/12/20 09:07:09;;;;;;;3.17;1.48;;;17.40;59.40;;;;;;5048193;28;20183;-63
2020/12/20 09:09:35;;;;;;;3.38;1.40;;;17.40;59.70;;;;;;5047192;28;20205;-63
2020/12/20 09:12:14;;;;;;;2.00;1.40;;;17.40;59.60;;;;;;5029433;28;20199;-63
2020/12/20 09:14:41;;;;;;;2.97;1.35;;;17.40;59.60;;;;;;5046560;28;20270;-64
2020/12/20 09:17:07;;;;;;;1.83;1.27;;;17.40;59.50;;;;;;5028945;28;20167;-63
2020/12/20 09:19:32;;;;;;;2.88;1.50;;;17.30;59.50;;;;;;5046615;28;20187;-65
2020/12/20 09:21:58;;;;;;;4.22;1.35;;;17.30;59.60;;;;;;5046012;28;20181;-67
2020/12/20 09:24:25;;;;;;;4.60;1.60;;;17.30;60.00;;;;;;5046426;28;20183;-66
2020/12/20 09:27:00;;;;;;;4.78;1.50;;;17.30;60.30;;;;;;5046545;28;20217;-67
2020/12/20 09:29:26;;;;;;;3.50;1.30;;;17.30;60.10;;;;;;5046433;28;20175;-65
2020/12/20 09:31:53;;;;;;;1.70;1.50;;;17.30;59.90;;;;;;5046484;28;20210;-65
2020/12/20 09:34:20;;;;;;;2.20;2.00;;;17.30;60.30;;;;;;5045823;28;20330;-65
2020/12/20 09:36:45;;;;;;;3.65;1.40;;;17.40;60.20;;;;;;5046135;28;20175;-65
2020/12/20 09:39:12;;;;;;;2.55;1.40;;;17.50;60.10;;;;;;5045846;28;20878;-65
2020/12/20 09:41:37;;;;;;;2.65;1.30;;;17.70;59.90;;;;;;5046347;28;20175;-65
2020/12/20 09:44:03;;;;;;;2.45;1.10;;;17.90;59.50;;;;;;5046066;28;21044;-65
2020/12/20 09:46:38;;;;;;;3.03;1.55;;;18.20;58.90;;;;;;5045802;28;20171;-66
2020/12/20 09:49:04;;;;;;;4.45;1.85;;;18.60;58.20;;;;;;5045969;28;20692;-65
2020/12/20 09:51:32;;;;;;;3.05;1.23;;;18.90;57.70;;;;;;5028457;28;20262;-65
2020/12/20 09:53:57;;;;;;;4.70;1.30;;;19.20;57.10;;;;;;5046034;28;20171;-64
2020/12/20 09:56:23;;;;;;;2.47;1.33;;;19.40;56.70;;;;;;5045812;28;20195;-66
2020/12/20 09:58:49;;;;;;;2.97;1.25;;;19.60;56.20;;;;;;5046244;28;20200;-67
2020/12/20 10:01:21;;;;;;;1.40;1.10;;;19.80;56.10;;;;;;5045756;28;20183;-66
2020/12/20 10:03:47;;;;;;;2.63;1.38;;;19.90;55.80;;;;;;5045495;28;20329;-64
2020/12/20 10:06:14;;;;;;;1.50;1.10;;;19.90;55.70;;;;;;5049014;28;20657;-63
2020/12/20 10:08:40;;;;;;;3.58;1.45;;;20.00;55.80;;;;;;5030199;28;20260;-64
2020/12/20 10:11:06;;;;;;;3.42;1.30;;;20.00;56.00;;;;;;5065372;28;20214;-63
2020/12/20 10:13:32;;;;;;;3.40;1.20;;;19.90;56.10;;;;;;5058076;28;20210;-64
2020/12/20 10:15:57;;;;;;;2.55;1.40;;;19.90;56.20;;;;;;5045774;28;20171;-64
2020/12/20 10:18:23;;;;;;;2.15;1.23;;;19.90;56.20;;;;;;5045552;28;20183;-64
2020/12/20 10:20:48;;;;;;;3.70;1.45;;;19.80;56.30;;;;;;5045391;28;20178;-63
2020/12/20 10:23:14;;;;;;;1.70;1.20;;;19.80;56.40;;;;;;5062200;28;20212;-65
2020/12/20 10:25:42;;;;;;;1.63;1.40;;;19.70;56.50;;;;;;5065340;28;20620;-63
2020/12/20 10:28:08;;;;;;;2.65;1.30;;;19.70;56.60;;;;;;5064980;28;20198;-64
2020/12/20 10:30:34;;;;;;;1.60;1.17;;;19.70;56.80;;;;;;5064962;28;20683;-63
2020/12/20 10:33:00;;;;;;;2.50;1.60;;;19.60;56.80;;;;;;5047413;28;20273;-65
2020/12/20 10:35:27;;;;;;;2.60;1.60;;;19.60;56.80;;;;;;5065380;28;20173;-65
2020/12/20 10:37:56;;;;;;;2.42;1.30;;;19.60;56.90;;;;;;5065116;28;20631;-64
2020/12/20 10:40:22;;;;;;;1.60;1.30;;;19.50;57.00;;;;;;5047393;28;20186;-65
2020/12/20 10:42:48;;;;;;;2.08;1.52;;;19.40;57.20;;;;;;5027397;28;20207;-65
2020/12/20 10:45:14;;;;;;;1.85;1.33;;;19.30;57.50;;;;;;5027296;28;20183;-63
2020/12/20 10:47:40;;;;;;;1.90;1.10;;;19.20;57.60;;;;;;5011120;28;20258;-63
2020/12/20 10:50:06;;;;;;;2.80;1.50;;;19.20;57.80;;;;;;5045137;28;20663;-64
2020/12/20 10:52:31;;;;;;;2.63;1.42;;;19.20;57.80;;;;;;5045028;28;20179;-63
2020/12/20 10:54:57;;;;;;;2.13;1.35;;;19.20;57.90;;;;;;5045114;28;20194;-64
2020/12/20 10:57:23;;;;;;;1.83;1.33;;;19.10;57.90;;;;;;5045114;28;20183;-65
2020/12/20 10:59:48;;;;;;;1.73;1.45;;;19.20;58.00;;;;;;5044881;28;20175;-64
2020/12/20 11:02:14;;;;;;;3.33;1.60;;;19.20;57.90;;;;;;5044677;28;21083;-63
2020/12/20 11:04:40;;;;;;;2.15;1.40;;;19.20;58.00;;;;;;5044594;28;20320;-64
2020/12/20 11:07:05;;;;;;;1.95;1.20;;;19.20;57.90;;;;;;5044632;28;20171;-64
2020/12/20 11:09:31;;;;;;;3.00;1.33;;;19.20;57.90;;;;;;5044485;28;20217;-63
2020/12/20 11:11:56;;;;;;;2.42;1.40;;;19.30;57.80;;;;;;5044378;28;20175;-64
2020/12/20 11:14:22;;;;;;;2.97;1.20;;;19.30;57.80;;;;;;5025858;28;20185;-63
2020/12/20 11:16:51;;;;;;;1.92;1.10;;;19.30;57.70;;;;;;5064622;28;20170;-65
2020/12/20 11:19:19;;;;;;;3.13;1.48;;;19.30;57.60;;;;;;5046505;28;20174;-65
2020/12/20 11:21:49;;;;;;;2.13;1.65;;;19.30;57.70;;;;;;5064009;28;20319;-63
2020/12/20 11:24:15;;;;;;;1.90;1.13;;;19.30;57.70;;;;;;5030297;28;20178;-63
2020/12/20 11:26:45;;;;;;;2.67;1.30;;;19.20;57.80;;;;;;5046420;28;20271;-64
2020/12/20 11:29:11;;;;;;;2.58;1.23;;;19.20;58.00;;;;;;5046803;28;20257;-65
2020/12/20 11:31:37;;;;;;;2.60;1.10;;;19.10;58.10;;;;;;5064290;28;20178;-65
2020/12/20 11:34:02;;;;;;;3.20;1.25;;;19.10;58.20;;;;;;5046550;28;20170;-65
2020/12/20 11:36:28;;;;;;;3.03;1.50;;;19.10;58.30;;;;;;5064350;28;20178;-65
2020/12/20 11:38:54;;;;;;;4.72;1.40;;;19.10;58.30;;;;;;5045861;28;20212;-65
2020/12/20 11:41:23;;;;;;;2.47;1.20;;;19.10;58.20;;;;;;5064132;28;20170;-66
2020/12/20 11:43:49;;;;;;;2.50;1.40;;;19.20;58.00;;;;;;5064071;28;20206;-63
2020/12/20 11:46:14;;;;;;;4.28;1.70;;;19.10;58.00;;;;;;5064202;28;20231;-66
2020/12/20 11:48:40;;;;;;;4.38;1.38;;;19.10;58.10;;;;;;5064140;28;20213;-64
2020/12/20 11:51:07;;;;;;;3.03;1.42;;;19.20;58.10;;;;;;5063954;28;20650;-64
2020/12/20 11:53:32;;;;;;;2.75;1.40;;;19.10;58.00;;;;;;5030187;28;20175;-62
2020/12/20 11:55:58;;;;;;;2.55;1.42;;;19.10;58.20;;;;;;5064010;28;20171;-62
2020/12/20 11:58:23;;;;;;;3.45;1.30;;;19.00;58.20;;;;;;5063970;28;20195;-62
2020/12/20 12:00:49;;;;;;;3.17;1.52;;;19.00;58.20;;;;;;5064025;28;20174;-62
2020/12/20 12:03:15;;;;;;;4.35;1.65;;;19.00;58.20;;;;;;5046241;28;20321;-62
2020/12/20 12:05:41;;;;;;;5.45;1.55;;;19.00;58.10;;;;;;5046059;28;20197;-63
2020/12/20 12:08:07;;;;;;;4.40;1.60;;;19.10;58.20;;;;;;5045866;28;20163;-63
2020/12/20 12:10:33;;;;;;;2.80;1.20;;;19.10;58.20;;;;;;5063753;28;20304;-63
2020/12/20 12:13:02;;;;;;;4.63;1.50;;;19.10;58.10;;;;;;5040641;28;20176;-63
2020/12/20 12:15:29;;;;;;;3.85;1.63;;;19.10;58.10;;;;;;5044222;28;20541;-64
2020/12/20 12:17:54;;;;;;;2.53;1.40;;;19.10;58.10;;;;;;5044100;28;20547;-62
2020/12/20 12:20:20;;;;;;;2.80;1.30;;;19.10;58.20;;;;;;5043699;28;20185;-63
2020/12/20 12:22:46;;;;;;;3.22;1.52;;;19.00;58.20;;;;;;5043827;28;20214;-62
2020/12/20 12:25:13;;;;;;;2.03;1.20;;;19.00;58.30;;;;;;5043682;28;20178;-64
2020/12/20 12:27:39;;;;;;;2.35;1.20;;;18.90;58.30;;;;;;5043813;28;20183;-64
2020/12/20 12:30:04;;;;;;;2.83;1.60;;;18.90;58.60;;;;;;5043423;28;20217;-65
2020/12/20 12:32:30;;;;;;;3.92;1.45;;;18.90;58.60;;;;;;5043641;28;20974;-61
2020/12/20 12:34:56;;;;;;;3.85;1.45;;;18.80;58.70;;;;;;5043504;28;20254;-67
2020/12/20 12:37:23;;;;;;;4.75;1.40;;;18.80;58.80;;;;;;5025811;28;20207;-64
2020/12/20 12:39:48;;;;;;;3.08;1.67;;;18.70;59.50;;;;;;5043306;28;20215;-60
2020/12/20 12:42:14;;;;;;;3.67;1.88;;;18.70;59.00;;;;;;5043255;28;20206;-62
2020/12/20 12:44:42;;;;;;;5.43;1.70;;;18.70;59.00;;;;;;5043541;28;20190;-64
2020/12/20 12:47:11;;;;;;;5.72;1.98;;;18.70;59.20;;;;;;5043216;28;20250;-61